Time;durP1;ratioP1;P1;durP2;ratioP2;P2;SDS_P1;SDS_P2;PMS_P1;PMS_P2;Temp;Humidity;BMP_temperature;BMP_pressure;BME280_temperature;BME280_humidity;BME280_pressure;Samples;Min_cycle;Max_cycle;Signal;HPM_P1;HPM_P2
2022/06/25 00:01:21;;;;;;;19.50;17.50;;;19.10;99.90;;;;;;5014202;28;20286;-63
2022/06/25 00:03:47;;;;;;;19.52;17.50;;;19.00;99.90;;;;;;5011699;28;20071;-63
2022/06/25 00:06:14;;;;;;;19.55;17.55;;;19.00;99.90;;;;;;5016163;28;20049;-62
2022/06/25 00:08:47;;;;;;;20.13;18.02;;;19.00;99.90;;;;;;5014948;28;20045;-62
2022/06/25 00:14:07;;;;;;;21.95;18.67;;;18.90;99.90;;;;;;5014153;28;20501;-62
2022/06/25 00:16:33;;;;;;;;;;;18.90;99.90;;;;;;5015898;28;20048;-63
2022/06/25 00:18:58;;;;;;;22.05;19.85;;;18.90;99.90;;;;;;5020451;28;20371;-63
2022/06/25 00:21:24;;;;;;;22.48;20.17;;;18.90;99.90;;;;;;5009179;28;20164;-63
2022/06/25 00:23:50;;;;;;;23.05;20.58;;;18.80;99.90;;;;;;5013784;28;20045;-62
2022/06/25 00:26:16;;;;;;;23.45;20.85;;;18.80;99.90;;;;;;5009587;28;20049;-63
2022/06/25 00:28:42;;;;;;;23.98;21.02;;;18.80;99.90;;;;;;5002114;28;20061;-63
2022/06/25 00:31:07;;;;;;;23.90;21.40;;;18.80;99.90;;;;;;5015611;28;20084;-63
2022/06/25 00:33:33;;;;;;;23.20;20.73;;;18.80;99.90;;;;;;4996808;28;20056;-63
2022/06/25 00:35:59;;;;;;;24.70;21.05;;;18.70;99.90;;;;;;4995829;28;20029;-63
2022/06/25 00:38:25;;;;;;;27.10;23.88;;;18.70;99.90;;;;;;5012338;28;20509;-63
2022/06/25 00:40:51;;;;;;;25.70;22.52;;;18.70;99.90;;;;;;5012835;28;20153;-62
2022/06/25 00:43:17;;;;;;;25.52;22.75;;;18.70;99.90;;;;;;5013850;28;20046;-63
2022/06/25 00:45:44;;;;;;;29.38;23.55;;;18.70;99.90;;;;;;5014535;28;20049;-63
2022/06/25 00:48:10;;;;;;;28.80;23.58;;;18.70;99.90;;;;;;4998045;28;20049;-63
2022/06/25 00:50:36;;;;;;;27.02;23.10;;;18.60;99.90;;;;;;5018010;28;20046;-63
2022/06/25 00:53:04;;;;;;;26.75;23.98;;;18.60;99.90;;;;;;4995339;28;20068;-63
2022/06/25 00:55:31;;;;;;;28.10;23.48;;;18.60;99.90;;;;;;5014164;28;20358;-63
2022/06/25 00:58:01;;;;;;;29.23;25.40;;;18.60;99.90;;;;;;5020038;28;20382;-62
2022/06/25 01:00:27;;;;;;;28.30;24.95;;;18.50;99.90;;;;;;5014336;28;20049;-63
2022/06/25 01:02:53;;;;;;;28.10;25.10;;;18.50;99.90;;;;;;5012970;28;20869;-62
2022/06/25 01:05:19;;;;;;;30.10;24.50;;;18.50;99.90;;;;;;5008668;28;20038;-63
2022/06/25 01:07:49;;;;;;;27.48;23.45;;;18.60;99.90;;;;;;4993909;28;20048;-63
2022/06/25 01:10:16;;;;;;;28.08;24.02;;;18.50;99.90;;;;;;5013129;28;20041;-63
2022/06/25 01:12:42;;;;;;;27.10;24.20;;;18.50;99.90;;;;;;5010085;28;20075;-63
2022/06/25 01:15:17;;;;;;;28.08;23.30;;;18.50;99.90;;;;;;5011080;28;20045;-62
2022/06/25 01:17:45;;;;;;;27.70;23.95;;;18.50;99.90;;;;;;5010552;28;20132;-63
2022/06/25 01:20:12;;;;;;;27.25;24.08;;;18.40;99.90;;;;;;5010638;28;20049;-62
2022/06/25 01:22:38;;;;;;;30.73;23.98;;;18.40;99.90;;;;;;5005597;28;20131;-63
2022/06/25 01:25:07;;;;;;;28.92;25.13;;;18.40;99.90;;;;;;4974523;28;20045;-62
2022/06/25 01:27:33;;;;;;;27.48;22.98;;;18.40;99.90;;;;;;4988280;28;20053;-62
2022/06/25 01:30:00;;;;;;;24.70;21.92;;;18.40;99.90;;;;;;5010873;28;20054;-62
2022/06/25 01:32:25;;;;;;;29.92;19.92;;;18.40;99.90;;;;;;5009475;28;20049;-62
2022/06/25 01:34:51;;;;;;;25.27;22.67;;;18.40;99.90;;;;;;4993600;28;20050;-63
2022/06/25 01:37:17;;;;;;;23.05;20.65;;;18.30;99.90;;;;;;5010559;28;20049;-63
2022/06/25 01:39:43;;;;;;;24.23;21.67;;;18.30;99.90;;;;;;5013235;28;20049;-63
2022/06/25 01:42:58;;;;;;;23.33;20.88;;;18.30;99.90;;;;;;5010713;28;20495;-62
2022/06/25 01:44:57;;;;;;;25.08;21.55;;;18.30;99.90;;;;;;5010578;28;20089;-63
2022/06/25 01:47:23;;;;;;;25.30;20.00;;;18.20;99.90;;;;;;5009393;28;20197;-62
2022/06/25 01:49:49;;;;;;;24.45;20.70;;;18.20;99.90;;;;;;4999286;28;20073;-63
2022/06/25 01:52:15;;;;;;;22.77;19.27;;;18.20;99.90;;;;;;5011823;28;20404;-63
2022/06/25 01:54:40;;;;;;;22.55;19.13;;;18.20;99.90;;;;;;4988406;28;20041;-63
2022/06/25 01:57:06;;;;;;;20.42;18.27;;;18.20;99.90;;;;;;5015589;28;20494;-63
2022/06/25 01:59:32;;;;;;;21.92;18.58;;;18.20;99.90;;;;;;5015976;28;20044;-63
2022/06/25 02:01:58;;;;;;;20.65;18.45;;;18.20;99.90;;;;;;4979923;28;20052;-62
2022/06/25 02:04:23;;;;;;;20.13;16.83;;;18.20;99.90;;;;;;5009666;28;20128;-62
2022/06/25 02:06:50;;;;;;;19.02;16.90;;;18.10;99.90;;;;;;5012471;28;20073;-62
2022/06/25 02:09:16;;;;;;;22.52;18.92;;;18.10;99.90;;;;;;5004434;28;20110;-62
2022/06/25 02:11:41;;;;;;;20.27;18.15;;;18.10;99.90;;;;;;5019269;28;20045;-63
2022/06/25 02:14:07;;;;;;;21.30;17.90;;;18.10;99.90;;;;;;5019634;28;20051;-62
2022/06/25 02:16:33;;;;;;;20.20;18.05;;;18.10;99.90;;;;;;5008115;28;20056;-62
2022/06/25 02:18:59;;;;;;;18.75;16.58;;;18.10;99.90;;;;;;5007113;28;20514;-62
2022/06/25 02:21:25;;;;;;;18.60;16.70;;;18.10;99.90;;;;;;5001679;28;20805;-62
2022/06/25 02:23:51;;;;;;;20.38;17.15;;;18.00;99.90;;;;;;5010362;28;20111;-62
2022/06/25 02:26:16;;;;;;;19.98;17.48;;;18.00;99.90;;;;;;5008040;28;21043;-62
2022/06/25 02:28:42;;;;;;;18.55;16.55;;;18.00;99.90;;;;;;5006724;28;20057;-62
2022/06/25 02:31:08;;;;;;;18.65;16.63;;;18.00;99.90;;;;;;5013900;28;20403;-62
2022/06/25 02:33:34;;;;;;;18.88;16.92;;;18.00;99.90;;;;;;5014450;28;20049;-62
2022/06/25 02:36:00;;;;;;;18.35;16.35;;;18.00;99.90;;;;;;5010924;28;20457;-62
2022/06/25 02:38:25;;;;;;;18.33;16.25;;;17.90;99.90;;;;;;5011773;28;20060;-62
2022/06/25 02:40:52;;;;;;;18.65;16.70;;;17.90;99.90;;;;;;4990618;28;20046;-62
2022/06/25 02:43:17;;;;;;;22.40;16.92;;;17.90;99.90;;;;;;5006141;28;20045;-62
2022/06/25 02:45:43;;;;;;;19.33;17.10;;;17.90;99.90;;;;;;5014243;28;20049;-63
2022/06/25 02:48:10;;;;;;;22.10;16.98;;;17.90;99.90;;;;;;5012915;28;20172;-63
2022/06/25 02:50:36;;;;;;;17.73;15.82;;;17.90;99.90;;;;;;5008627;28;20084;-62
2022/06/25 02:53:02;;;;;;;20.27;16.35;;;17.80;99.90;;;;;;5010636;28;20078;-62
2022/06/25 03:00:57;;;;;;;17.73;15.60;;;17.80;99.90;;;;;;5012456;28;20080;-62
2022/06/25 03:03:23;;;;;;;18.65;15.02;;;17.80;99.90;;;;;;5012340;28;20562;-62
2022/06/25 03:05:49;;;;;;;19.75;15.43;;;17.70;99.90;;;;;;4979041;28;20041;-62
2022/06/25 03:08:15;;;;;;;17.42;15.35;;;17.70;99.90;;;;;;4993744;28;20153;-62
2022/06/25 03:10:41;;;;;;;17.65;15.07;;;17.70;99.90;;;;;;5015247;28;20081;-62
2022/06/25 03:13:07;;;;;;;16.48;14.65;;;17.70;99.90;;;;;;5012274;28;20053;-62
2022/06/25 03:15:33;;;;;;;18.55;14.68;;;17.70;99.90;;;;;;5009021;28;20041;-62
2022/06/25 03:17:59;;;;;;;15.60;14.00;;;17.70;99.90;;;;;;5014681;28;20541;-62
2022/06/25 03:20:25;;;;;;;18.50;14.27;;;17.60;99.90;;;;;;5009011;28;20152;-62
2022/06/25 03:22:50;;;;;;;16.77;14.38;;;17.60;99.90;;;;;;5004234;28;20060;-62
2022/06/25 03:25:16;;;;;;;15.23;13.35;;;17.60;99.90;;;;;;4997135;28;20077;-62
2022/06/25 03:27:42;;;;;;;14.68;13.13;;;17.60;99.90;;;;;;5018712;28;20053;-62
2022/06/25 03:30:08;;;;;;;15.75;13.85;;;17.60;99.90;;;;;;5015512;28;20080;-62
2022/06/25 03:32:34;;;;;;;15.52;13.75;;;17.60;99.90;;;;;;5010153;28;20041;-62
2022/06/25 03:35:00;;;;;;;15.45;12.35;;;17.50;99.90;;;;;;4998460;28;20422;-62
2022/06/25 03:37:26;;;;;;;17.00;13.45;;;17.60;99.90;;;;;;5011619;28;20041;-62
2022/06/25 03:39:51;;;;;;;14.20;12.15;;;17.50;99.90;;;;;;5012292;28;20044;-62
2022/06/25 03:42:17;;;;;;;15.07;12.40;;;17.50;99.90;;;;;;5004608;28;20554;-62
2022/06/25 03:44:43;;;;;;;13.63;12.23;;;17.50;99.90;;;;;;5017537;28;26199;-62
2022/06/25 03:47:09;;;;;;;13.07;11.65;;;17.50;99.90;;;;;;5019266;28;20120;-62
2022/06/25 03:49:35;;;;;;;15.48;12.70;;;17.50;99.90;;;;;;5013610;28;20058;-62
2022/06/25 03:52:01;;;;;;;13.95;11.90;;;17.50;99.90;;;;;;4996794;28;20064;-62
2022/06/25 03:54:27;;;;;;;13.20;11.82;;;17.50;99.90;;;;;;4991394;28;20052;-62
2022/06/25 03:56:53;;;;;;;13.15;11.80;;;17.50;99.90;;;;;;5000049;28;20041;-62
2022/06/25 03:59:18;;;;;;;12.65;11.35;;;17.40;99.90;;;;;;5014636;28;21249;-62
2022/06/25 04:01:44;;;;;;;13.38;11.50;;;17.40;99.90;;;;;;5014152;28;20053;-62
2022/06/25 04:04:10;;;;;;;13.02;10.80;;;17.40;99.90;;;;;;5012755;28;20476;-62
2022/06/25 04:06:36;;;;;;;12.68;11.30;;;17.40;99.90;;;;;;5013740;28;20061;-62
2022/06/25 04:09:03;;;;;;;12.50;10.95;;;17.50;99.90;;;;;;5009919;28;20048;-62
2022/06/25 04:11:29;;;;;;;12.93;10.70;;;17.50;99.90;;;;;;5018310;28;20356;-62
2022/06/25 04:13:55;;;;;;;14.48;10.63;;;17.50;99.90;;;;;;5002744;28;20052;-62
2022/06/25 04:16:21;;;;;;;15.70;11.43;;;17.50;99.90;;;;;;5015614;28;22353;-62
2022/06/25 04:18:48;;;;;;;12.05;10.52;;;17.50;99.90;;;;;;4997665;28;20053;-62
2022/06/25 04:21:14;;;;;;;10.77;9.73;;;17.50;99.90;;;;;;5011736;28;20475;-62
2022/06/25 04:23:40;;;;;;;14.80;10.30;;;17.60;99.90;;;;;;5009351;28;20045;-63
2022/06/25 04:26:07;;;;;;;10.60;9.50;;;17.60;99.90;;;;;;5010164;28;20499;-62
2022/06/25 04:31:17;;;;;;;11.15;9.32;;;17.60;99.90;;;;;;4994213;28;20495;-62
2022/06/25 04:33:43;;;;;;;10.80;9.80;;;17.60;99.90;;;;;;5000183;28;20047;-62
2022/06/25 04:36:09;;;;;;;11.38;9.85;;;17.60;99.90;;;;;;5013265;28;20092;-62
2022/06/25 04:38:35;;;;;;;11.25;9.57;;;17.70;99.90;;;;;;5010835;28;20053;-62
2022/06/25 04:41:00;;;;;;;10.93;9.30;;;17.60;99.90;;;;;;5010118;28;20107;-63
2022/06/25 04:43:26;;;;;;;11.73;10.52;;;17.70;99.90;;;;;;5014547;28;20131;-62
2022/06/25 04:45:52;;;;;;;11.77;9.88;;;17.70;99.90;;;;;;5014926;28;20861;-62
2022/06/25 04:48:18;;;;;;;13.68;10.25;;;17.70;99.90;;;;;;5012387;28;20049;-62
2022/06/25 04:50:44;;;;;;;13.07;9.65;;;17.70;99.90;;;;;;4991325;28;20037;-62
2022/06/25 04:53:11;;;;;;;15.20;10.32;;;17.70;99.90;;;;;;5012585;28;20069;-63
2022/06/25 04:55:37;;;;;;;10.95;9.70;;;17.70;99.90;;;;;;5006758;28;20056;-62
2022/06/25 04:58:03;;;;;;;11.88;9.90;;;17.70;99.90;;;;;;5017301;28;20105;-62
2022/06/25 05:00:29;;;;;;;13.02;10.30;;;17.70;99.90;;;;;;5013243;28;20149;-62
2022/06/25 05:02:54;;;;;;;10.98;9.50;;;17.70;99.90;;;;;;4996807;28;20056;-62
2022/06/25 05:05:21;;;;;;;10.52;9.43;;;17.80;99.90;;;;;;4992407;28;20049;-62
2022/06/25 05:07:47;;;;;;;11.57;9.70;;;17.80;99.90;;;;;;4990973;28;20076;-62
2022/06/25 05:10:13;;;;;;;11.82;9.57;;;17.80;99.90;;;;;;5007207;28;20103;-62
2022/06/25 05:15:23;;;;;;;11.95;9.40;;;17.80;99.90;;;;;;5000812;28;21220;-62
2022/06/25 05:17:49;;;;;;;10.38;9.38;;;17.80;99.90;;;;;;5015905;28;20128;-62
2022/06/25 05:20:15;;;;;;;10.60;9.50;;;17.80;99.90;;;;;;5013099;28;20187;-62
2022/06/25 05:22:41;;;;;;;11.30;10.20;;;17.90;99.90;;;;;;5013577;28;20080;-62
2022/06/25 05:25:08;;;;;;;10.88;9.77;;;17.90;99.90;;;;;;5015848;28;20582;-62
2022/06/25 05:27:33;;;;;;;12.18;9.55;;;17.90;99.90;;;;;;4989119;28;20045;-62
2022/06/25 05:29:59;;;;;;;11.82;9.52;;;18.00;99.90;;;;;;4994759;28;20147;-62
2022/06/25 05:32:25;;;;;;;11.02;9.93;;;18.00;99.90;;;;;;4996773;28;20044;-62
2022/06/25 05:34:51;;;;;;;10.90;9.80;;;18.00;99.90;;;;;;5009809;28;20037;-62
2022/06/25 05:37:17;;;;;;;11.95;9.82;;;18.00;99.90;;;;;;5012925;28;20883;-62
2022/06/25 05:39:43;;;;;;;12.85;9.38;;;18.10;99.90;;;;;;5005952;28;20053;-62
2022/06/25 05:42:09;;;;;;;10.45;9.45;;;18.10;99.90;;;;;;5015045;28;20055;-62
2022/06/25 05:44:34;;;;;;;13.90;9.77;;;18.20;99.90;;;;;;5037685;28;20048;-62
2022/06/25 05:47:00;;;;;;;13.25;9.70;;;18.20;99.90;;;;;;5015350;28;20501;-62
2022/06/25 05:49:26;;;;;;;11.70;10.30;;;18.20;99.90;;;;;;5006315;28;20446;-62
2022/06/25 05:51:52;;;;;;;10.80;8.93;;;18.20;99.90;;;;;;5003620;28;20092;-62
2022/06/25 05:54:18;;;;;;;11.90;8.90;;;18.30;99.90;;;;;;5011013;28;20037;-62
2022/06/25 05:56:43;;;;;;;10.55;9.45;;;18.30;99.90;;;;;;5014184;28;20104;-62
2022/06/25 05:59:09;;;;;;;10.65;9.55;;;18.40;99.90;;;;;;5016901;28;20052;-62
2022/06/25 06:01:35;;;;;;;9.63;8.50;;;18.50;99.90;;;;;;5010836;28;20061;-62
2022/06/25 06:04:01;;;;;;;12.95;9.27;;;18.50;99.90;;;;;;5002954;28;20049;-62
2022/06/25 06:06:27;;;;;;;11.88;8.73;;;18.60;99.90;;;;;;4987543;28;20080;-62
2022/06/25 06:08:53;;;;;;;9.27;8.27;;;18.60;99.90;;;;;;5008887;28;20045;-63
2022/06/25 06:11:18;;;;;;;10.82;9.20;;;18.70;99.90;;;;;;5014828;28;20057;-62
2022/06/25 06:13:44;;;;;;;10.35;8.88;;;18.70;99.90;;;;;;5010712;28;20050;-62
2022/06/25 06:16:10;;;;;;;9.80;8.80;;;18.80;99.90;;;;;;5014548;28;20053;-63
2022/06/25 06:18:36;;;;;;;12.15;8.55;;;18.90;99.90;;;;;;4977257;28;20053;-62
2022/06/25 06:21:01;;;;;;;9.18;7.88;;;18.90;99.90;;;;;;5013833;28;20046;-62
2022/06/25 06:23:27;;;;;;;16.80;8.90;;;19.00;99.90;;;;;;5002652;28;20081;-62
2022/06/25 06:25:53;;;;;;;15.77;8.68;;;19.10;99.90;;;;;;5002597;28;20488;-62
2022/06/25 06:28:19;;;;;;;9.35;8.40;;;19.20;99.90;;;;;;5007610;28;20144;-62
2022/06/25 06:30:46;;;;;;;9.85;8.35;;;19.30;99.90;;;;;;4983097;28;20476;-63
2022/06/25 06:33:12;;;;;;;11.75;8.82;;;19.40;99.90;;;;;;4988615;28;20046;-62
2022/06/25 06:35:38;;;;;;;11.73;8.45;;;19.40;99.90;;;;;;5011445;28;20092;-63
2022/06/25 06:38:04;;;;;;;10.27;8.05;;;19.50;99.90;;;;;;5007002;28;20049;-62
2022/06/25 06:40:30;;;;;;;9.20;7.65;;;19.60;99.90;;;;;;5003776;28;20048;-62
2022/06/25 06:42:56;;;;;;;10.07;8.00;;;19.70;99.90;;;;;;5004740;28;20049;-62
2022/06/25 06:45:22;;;;;;;13.10;7.65;;;19.70;99.90;;;;;;4989776;28;20055;-62
2022/06/25 06:47:48;;;;;;;11.85;7.75;;;19.80;99.90;;;;;;4991502;28;20045;-62
2022/06/25 06:50:14;;;;;;;11.30;7.50;;;19.80;99.90;;;;;;5001620;28;20056;-62
2022/06/25 06:52:40;;;;;;;10.77;7.32;;;19.90;99.90;;;;;;5008674;28;20048;-62
2022/06/25 06:55:06;;;;;;;8.18;7.18;;;20.00;99.90;;;;;;5003598;28;20045;-62
2022/06/25 06:57:33;;;;;;;9.88;7.00;;;20.10;99.90;;;;;;4990101;28;20045;-62
2022/06/25 06:59:59;;;;;;;10.70;6.85;;;20.20;99.90;;;;;;5014193;28;20203;-62
2022/06/25 07:02:26;;;;;;;11.02;7.32;;;20.30;99.90;;;;;;4986976;28;20515;-62
2022/06/25 07:04:52;;;;;;;8.63;7.30;;;20.40;99.90;;;;;;4992022;28;20064;-62
2022/06/25 07:07:18;;;;;;;10.38;6.93;;;20.50;99.90;;;;;;5006611;28;20092;-62
2022/06/25 07:09:44;;;;;;;8.23;6.55;;;20.50;99.90;;;;;;4992880;28;20120;-62
2022/06/25 07:12:10;;;;;;;11.10;7.03;;;20.60;99.90;;;;;;5009275;28;20076;-62
2022/06/25 07:14:36;;;;;;;10.52;6.75;;;20.70;99.90;;;;;;5012006;28;20049;-62
2022/06/25 07:17:02;;;;;;;7.80;6.32;;;20.70;99.90;;;;;;5007002;28;20041;-62
2022/06/25 07:19:28;;;;;;;7.38;5.68;;;20.80;99.90;;;;;;4990543;28;20065;-62
2022/06/25 07:21:54;;;;;;;8.77;5.60;;;20.80;99.90;;;;;;5008535;28;20076;-62
2022/06/25 07:24:24;;;;;;;12.52;6.38;;;20.90;99.90;;;;;;4999495;28;20065;-62
2022/06/25 07:26:50;;;;;;;6.28;5.60;;;21.00;99.90;;;;;;5006875;28;20060;-62
2022/06/25 07:29:16;;;;;;;7.93;5.43;;;21.10;99.90;;;;;;5014947;28;20056;-62
2022/06/25 07:31:42;;;;;;;6.20;5.45;;;21.10;99.90;;;;;;5013443;28;20038;-62
2022/06/25 07:34:08;;;;;;;13.27;5.63;;;21.20;99.90;;;;;;5012831;28;20052;-62
2022/06/25 07:36:34;;;;;;;8.65;5.55;;;21.30;99.90;;;;;;5012858;28;20072;-63
2022/06/25 07:39:03;;;;;;;7.13;5.18;;;21.30;99.90;;;;;;5002183;28;20312;-62
2022/06/25 07:41:29;;;;;;;8.48;5.30;;;21.40;99.90;;;;;;5003366;28;20048;-62
2022/06/25 07:43:55;;;;;;;6.88;4.97;;;21.40;99.90;;;;;;4993135;28;20057;-62
2022/06/25 07:46:21;;;;;;;7.82;5.05;;;21.50;99.90;;;;;;5007792;28;20521;-62
2022/06/25 07:48:47;;;;;;;8.10;5.07;;;21.70;99.90;;;;;;4987886;28;20468;-62
2022/06/25 07:53:57;;;;;;;6.78;4.68;;;21.90;99.90;;;;;;5014450;28;20033;-62
2022/06/25 07:56:23;;;;;;;7.07;4.22;;;22.00;99.90;;;;;;5002694;28;20087;-62
2022/06/25 07:58:49;;;;;;;7.60;4.10;;;22.00;99.90;;;;;;5005669;28;20077;-62
2022/06/25 08:01:15;;;;;;;5.18;3.88;;;22.10;99.90;;;;;;5006055;28;20049;-62
2022/06/25 08:03:41;;;;;;;7.05;3.70;;;22.20;99.90;;;;;;5022354;28;20110;-63
2022/06/25 08:06:07;;;;;;;5.10;3.67;;;22.20;99.90;;;;;;4998250;28;20488;-62
2022/06/25 08:08:34;;;;;;;7.47;3.92;;;22.20;99.90;;;;;;5027558;28;20071;-62
2022/06/25 08:11:00;;;;;;;4.80;3.63;;;22.30;99.90;;;;;;5042842;28;20045;-62
2022/06/25 08:13:26;;;;;;;8.05;3.80;;;22.30;99.90;;;;;;5021989;28;20045;-63
2022/06/25 08:15:53;;;;;;;5.82;3.40;;;22.40;99.90;;;;;;5007000;28;20129;-63
2022/06/25 08:18:19;;;;;;;5.22;3.40;;;22.50;99.90;;;;;;5025964;28;20112;-63
2022/06/25 08:20:45;;;;;;;5.68;3.38;;;22.60;99.90;;;;;;5023190;28;20068;-62
2022/06/25 08:23:11;;;;;;;5.43;3.00;;;22.70;99.90;;;;;;5025609;28;20057;-62
2022/06/25 08:25:37;;;;;;;9.25;3.45;;;22.80;99.90;;;;;;5022417;28;20209;-62
2022/06/25 08:28:03;;;;;;;7.15;2.80;;;22.90;99.90;;;;;;5020113;28;20516;-63
2022/06/25 08:30:29;;;;;;;4.53;2.40;;;23.00;99.90;;;;;;5018629;28;20138;-62
2022/06/25 08:32:55;;;;;;;4.55;2.90;;;23.00;99.90;;;;;;5002556;28;20042;-62
2022/06/25 08:35:22;;;;;;;3.55;2.50;;;22.90;99.90;;;;;;5015537;28;20108;-63
2022/06/25 08:37:49;;;;;;;4.90;2.40;;;22.90;99.90;;;;;;5012885;28;20075;-62
2022/06/25 08:40:18;;;;;;;5.28;2.67;;;23.00;99.90;;;;;;5019171;28;20057;-62
2022/06/25 08:42:44;;;;;;;3.50;2.38;;;23.10;99.90;;;;;;5018628;28;20057;-62
2022/06/25 08:45:10;;;;;;;3.13;2.10;;;23.20;99.90;;;;;;5010415;28;20114;-62
2022/06/25 08:47:44;;;;;;;7.53;2.55;;;23.10;99.90;;;;;;5017659;28;20059;-63
2022/06/25 08:50:12;;;;;;;3.83;2.40;;;23.10;99.90;;;;;;5024286;28;20117;-62
2022/06/25 08:52:38;;;;;;;6.28;2.53;;;23.00;99.90;;;;;;5022588;28;20048;-62
2022/06/25 08:55:06;;;;;;;4.93;2.65;;;22.90;99.90;;;;;;5020459;28;20124;-62
2022/06/25 08:57:31;;;;;;;4.25;2.83;;;22.80;99.90;;;;;;5009286;28;20118;-62
2022/06/25 08:59:57;;;;;;;5.32;2.50;;;22.70;99.90;;;;;;5003884;28;20046;-62
2022/06/25 09:02:23;;;;;;;5.75;2.78;;;22.60;99.90;;;;;;5002150;28;20128;-62
2022/06/25 09:04:49;;;;;;;6.13;2.30;;;22.70;99.90;;;;;;5009701;28;20071;-62
2022/06/25 09:07:18;;;;;;;3.47;2.30;;;22.80;99.90;;;;;;5016690;28;20594;-62
2022/06/25 09:09:51;;;;;;;6.95;2.95;;;23.00;99.90;;;;;;5036913;28;20045;-62
2022/06/25 09:12:18;;;;;;;5.40;2.30;;;23.20;99.90;;;;;;5007880;28;20046;-62
2022/06/25 09:14:44;;;;;;;4.28;2.10;;;23.40;99.90;;;;;;5012949;28;20046;-62
2022/06/25 09:17:13;;;;;;;6.53;2.50;;;23.50;99.90;;;;;;5019839;28;20074;-62
2022/06/25 09:19:40;;;;;;;5.65;2.50;;;23.50;99.90;;;;;;5013742;28;20515;-62
2022/06/25 09:22:08;;;;;;;6.75;2.65;;;23.50;99.90;;;;;;4992584;28;20089;-62
2022/06/25 09:24:50;;;;;;;7.40;2.72;;;23.60;99.90;;;;;;5015817;28;20046;-63
2022/06/25 09:27:39;;;;;;;5.18;3.05;;;23.60;99.70;;;;;;5009441;28;20502;-62
2022/06/25 09:30:14;;;;;;;5.28;2.10;;;23.70;99.80;;;;;;5008573;28;20057;-62
2022/06/25 09:32:51;;;;;;;5.90;2.75;;;23.70;99.60;;;;;;5015387;28;20048;-62
2022/06/25 09:35:29;;;;;;;5.20;2.15;;;23.70;99.70;;;;;;4996976;28;20051;-62
2022/06/25 09:38:10;;;;;;;6.50;2.65;;;23.80;99.50;;;;;;5018069;28;20064;-62
2022/06/25 09:40:38;;;;;;;6.05;2.55;;;23.90;99.00;;;;;;5015691;28;20052;-61
2022/06/25 09:43:15;;;;;;;3.42;2.17;;;23.90;98.90;;;;;;5011912;28;20053;-62
2022/06/25 09:45:47;;;;;;;4.80;2.13;;;24.00;98.80;;;;;;5006459;28;20045;-62
2022/06/25 09:48:33;;;;;;;3.95;2.33;;;24.10;98.40;;;;;;5014926;28;20480;-62
2022/06/25 09:51:12;;;;;;;3.40;1.95;;;24.30;98.60;;;;;;5015700;28;20140;-62
2022/06/25 09:53:51;;;;;;;3.58;1.92;;;24.40;97.70;;;;;;5006738;28;20050;-62
2022/06/25 09:56:21;;;;;;;4.20;2.05;;;24.60;98.00;;;;;;4992421;28;20195;-62
2022/06/25 09:58:48;;;;;;;3.25;1.65;;;24.70;98.00;;;;;;5013869;28;20941;-62
2022/06/25 10:01:16;;;;;;;4.03;1.77;;;24.70;97.30;;;;;;5016683;28;20075;-62
2022/06/25 10:03:43;;;;;;;3.20;1.50;;;24.80;96.90;;;;;;5019083;28;20124;-62
2022/06/25 10:06:10;;;;;;;4.18;1.63;;;24.70;96.70;;;;;;5024827;28;20049;-62
2022/06/25 10:08:36;;;;;;;3.67;1.70;;;24.70;97.00;;;;;;4992826;28;20637;-62
2022/06/25 10:11:05;;;;;;;3.70;1.77;;;24.70;97.20;;;;;;5032490;28;20053;-62
2022/06/25 10:13:33;;;;;;;2.95;1.50;;;24.70;97.00;;;;;;5015078;28;20077;-62
2022/06/25 10:15:59;;;;;;;5.45;1.63;;;24.60;96.60;;;;;;5015783;28;20048;-62
2022/06/25 10:18:25;;;;;;;4.47;2.13;;;24.70;97.00;;;;;;5018406;28;20037;-62
2022/06/25 10:20:51;;;;;;;2.63;1.70;;;24.80;96.80;;;;;;4995877;28;20049;-62
2022/06/25 10:23:20;;;;;;;3.58;1.60;;;24.80;96.20;;;;;;5001687;28;20485;-62
2022/06/25 10:25:47;;;;;;;3.75;1.70;;;24.80;96.00;;;;;;5021097;28;20132;-62
2022/06/25 10:28:23;;;;;;;5.80;1.73;;;24.70;95.80;;;;;;5024441;28;20153;-62
2022/06/25 10:30:51;;;;;;;4.03;1.60;;;24.50;95.90;;;;;;5021227;28;20395;-61
2022/06/25 10:33:28;;;;;;;6.65;1.65;;;24.50;96.00;;;;;;5013993;28;20041;-62
2022/06/25 10:36:04;;;;;;;6.03;1.70;;;24.70;96.10;;;;;;5022963;28;20207;-62
2022/06/25 10:38:30;;;;;;;5.95;1.38;;;24.90;95.60;;;;;;5023927;28;20463;-62
2022/06/25 10:43:53;;;;;;;3.70;1.40;;;25.00;95.40;;;;;;5017353;28;20061;-62
2022/06/25 10:46:23;;;;;;;3.05;1.70;;;24.90;94.90;;;;;;5004434;28;20056;-62
2022/06/25 10:48:51;;;;;;;7.20;1.58;;;24.80;95.00;;;;;;5011110;28;20396;-62
2022/06/25 10:51:39;;;;;;;1.90;1.60;;;24.60;95.20;;;;;;5008371;28;20057;-62
2022/06/25 10:54:25;;;;;;;2.60;1.80;;;24.40;95.40;;;;;;5012796;28;20071;-62
2022/06/25 10:57:00;;;;;;;6.32;2.05;;;24.30;95.30;;;;;;5019659;28;20049;-62
2022/06/25 10:59:32;;;;;;;3.88;1.80;;;24.10;95.80;;;;;;5024688;28;20037;-63
2022/06/25 11:01:59;;;;;;;6.45;1.70;;;24.00;96.20;;;;;;5012330;28;20049;-62
2022/06/25 11:04:27;;;;;;;3.45;2.00;;;23.90;96.70;;;;;;5007776;28;20116;-62
2022/06/25 11:07:06;;;;;;;5.38;1.80;;;23.80;96.90;;;;;;5010125;28;20083;-62
2022/06/25 11:09:32;;;;;;;3.22;1.50;;;23.70;97.20;;;;;;5020412;28;20041;-62
2022/06/25 11:11:59;;;;;;;5.05;1.73;;;23.60;97.40;;;;;;5011127;28;20051;-62
2022/06/25 11:14:25;;;;;;;4.15;1.90;;;23.60;97.70;;;;;;5014122;28;20481;-62
2022/06/25 11:16:52;;;;;;;2.97;1.70;;;23.50;97.70;;;;;;5039089;28;20112;-62
2022/06/25 11:19:20;;;;;;;3.05;1.40;;;23.40;97.60;;;;;;5021745;28;20085;-62
2022/06/25 11:21:47;;;;;;;3.95;1.40;;;23.40;97.70;;;;;;5025414;28;20045;-62
2022/06/25 11:24:27;;;;;;;2.67;1.42;;;23.30;97.70;;;;;;5009929;28;20497;-62
2022/06/25 11:30:01;;;;;;;2.88;1.55;;;23.20;97.90;;;;;;5020779;28;20048;-62
2022/06/25 11:32:30;;;;;;;4.05;1.58;;;23.00;98.20;;;;;;5006938;28;20128;-62
2022/06/25 11:35:01;;;;;;;2.50;1.80;;;23.00;98.60;;;;;;5024058;28;20068;-62
2022/06/25 11:37:29;;;;;;;3.92;1.45;;;23.00;98.80;;;;;;5023158;28;20068;-62
2022/06/25 11:39:55;;;;;;;3.60;1.38;;;23.00;99.10;;;;;;5028104;28;20049;-62
2022/06/25 11:42:22;;;;;;;2.42;1.20;;;23.20;99.40;;;;;;5007898;28;20099;-62
2022/06/25 11:44:56;;;;;;;4.45;1.30;;;23.40;99.30;;;;;;5025023;28;20052;-62
2022/06/25 11:47:27;;;;;;;2.15;1.20;;;23.90;99.20;;;;;;5007710;28;20551;-62
2022/06/25 11:49:53;;;;;;;4.10;1.27;;;24.30;98.40;;;;;;5028229;28;20446;-62
2022/06/25 11:52:24;;;;;;;5.45;1.45;;;24.50;97.90;;;;;;5005362;28;20511;-62
2022/06/25 11:54:51;;;;;;;3.28;1.35;;;24.60;97.30;;;;;;5025820;28;20050;-62
2022/06/25 11:57:25;;;;;;;3.28;1.20;;;24.60;96.80;;;;;;5024275;28;20044;-62
2022/06/25 11:59:52;;;;;;;2.55;1.10;;;24.50;95.70;;;;;;5016960;28;20100;-62
2022/06/25 12:02:20;;;;;;;2.42;1.30;;;24.40;95.20;;;;;;5027312;28;20052;-63
2022/06/25 12:04:51;;;;;;;5.55;1.30;;;24.30;95.00;;;;;;5026576;28;20054;-62
2022/06/25 12:07:37;;;;;;;2.25;1.08;;;24.20;95.30;;;;;;5039182;28;20148;-62
2022/06/25 12:10:06;;;;;;;4.18;1.15;;;24.10;95.60;;;;;;5012905;28;20054;-62
2022/06/25 12:12:33;;;;;;;1.58;1.15;;;24.10;95.40;;;;;;5020769;28;20111;-63
2022/06/25 12:15:03;;;;;;;4.30;1.00;;;24.00;95.30;;;;;;5016982;28;20045;-62
2022/06/25 12:17:34;;;;;;;5.22;1.35;;;24.00;95.70;;;;;;5026259;28;20049;-62
2022/06/25 12:20:07;;;;;;;3.00;1.20;;;23.90;95.80;;;;;;5027141;28;20517;-62
2022/06/25 12:22:37;;;;;;;4.18;1.17;;;23.80;95.70;;;;;;5023878;28;20048;-62
2022/06/25 12:25:04;;;;;;;3.47;1.30;;;23.70;95.50;;;;;;5022345;28;20162;-62
2022/06/25 12:27:30;;;;;;;5.65;1.27;;;23.60;95.60;;;;;;5022666;28;20507;-62
2022/06/25 12:29:59;;;;;;;4.30;1.30;;;23.50;96.30;;;;;;5023451;28;20057;-62
2022/06/25 12:32:42;;;;;;;4.15;1.30;;;23.40;96.70;;;;;;5027361;28;20045;-63
2022/06/25 12:35:19;;;;;;;4.18;1.50;;;23.30;96.70;;;;;;5024418;28;20136;-63
2022/06/25 12:38:07;;;;;;;3.03;1.75;;;23.20;97.30;;;;;;5007043;28;20122;-62
2022/06/25 12:40:46;;;;;;;10.80;2.03;;;23.10;97.90;;;;;;5013766;28;20603;-62
2022/06/25 12:43:14;;;;;;;10.00;2.35;;;22.90;99.30;;;;;;5022062;28;20160;-62
2022/06/25 12:45:45;;;;;;;4.18;2.17;;;22.70;99.90;;;;;;5015983;28;20048;-62
2022/06/25 12:48:12;;;;;;;3.33;1.88;;;22.50;99.90;;;;;;5015415;28;20110;-62
2022/06/25 12:50:40;;;;;;;3.30;1.77;;;22.30;99.90;;;;;;5012418;28;20057;-62
2022/06/25 12:53:10;;;;;;;6.50;2.55;;;22.20;99.90;;;;;;5028482;28;20033;-61
2022/06/25 12:55:36;;;;;;;6.43;2.38;;;22.10;99.90;;;;;;4998551;28;20045;-61
2022/06/25 12:58:08;;;;;;;4.50;2.55;;;22.10;99.90;;;;;;5014206;28;20347;-62
2022/06/25 13:00:37;;;;;;;4.55;2.13;;;22.20;99.90;;;;;;5016892;28;20050;-62
2022/06/25 13:03:06;;;;;;;2.47;2.05;;;22.20;99.90;;;;;;5022410;28;20041;-61